This is the latest recevied weather packets stored in our database for station/object EA5JMY-10. If no packets are shown the sender has not sent any weather packets the latest 10 day(s).
| Time | Temp. | Humidity | Pressure | Rain* | Wind** | Luminosity | Snow |
|---|---|---|---|---|---|---|---|
| 1777275306 | 25° C | 34% | 1021.2 hPa | - | - | - | - |
| 1777274406 | 23.33° C | 37% | 1021.2 hPa | - | - | - | - |
| 1777273505 | 26.11° C | 34% | 1021.2 hPa | - | - | - | - |
| 1777272605 | 20.56° C | 47% | 1021.2 hPa | - | - | - | - |
| 1777271705 | 19.44° C | 53% | 1021 hPa | - | - | - | - |
| 1777270805 | 17.22° C | 61% | 1021 hPa | - | - | - | - |
| 1777269905 | 17.78° C | 58% | 1020.9 hPa | - | - | - | - |
| 1777269005 | 17.78° C | 58% | 1020.9 hPa | - | - | - | - |
| 1777268105 | 18.89° C | 60% | 1020.6 hPa | - | - | - | - |
| 1777267205 | 14.44° C | 71% | 1020.6 hPa | - | - | - | - |
| 1777266305 | 13.33° C | 73% | 1020.7 hPa | - | - | - | - |
| 1777265404 | 13.89° C | 73% | 1020.5 hPa | - | - | - | - |
| 1777264504 | 13.89° C | 74% | 1020.7 hPa | - | - | - | - |
| 1777263604 | 13.89° C | 71% | 1020.5 hPa | - | - | - | - |
| 1777262704 | 13.89° C | 76% | 1020.6 hPa | - | - | - | - |
| 1777261804 | 13.33° C | 77% | 1020.6 hPa | - | - | - | - |
| 1777260904 | 13.33° C | 75% | 1020.6 hPa | - | - | - | - |
| 1777260004 | 13.89° C | 72% | 1020.9 hPa | - | - | - | - |
| 1777259104 | 14.44° C | 71% | 1020.8 hPa | - | - | - | - |
| 1777258204 | 14.44° C | 70% | 1021 hPa | - | - | - | - |
| 1777235701 | 16.67° C | 68% | 1021.5 hPa | - | - | - | - |
| 1777234801 | 16.67° C | 68% | 1021.4 hPa | - | - | - | - |
| 1777221298 | 21.11° C | 51% | 1020.4 hPa | - | - | - | - |
| 1777216797 | 22.78° C | 47% | 1020.5 hPa | - | - | - | - |
| 1777213197 | 22.78° C | 46% | 1020.9 hPa | - | - | - | - |
* Rain since midnight (hover to see other rain measurements)
** Current wind speed in m/s (hover to see current wind gust speed)